Time;durP1;ratioP1;P1;durP2;ratioP2;P2;SDS_P1;SDS_P2;PMS_P1;PMS_P2;Temp;Humidity;BMP_temperature;BMP_pressure;BME280_temperature;BME280_humidity;BME280_pressure;Samples;Min_cycle;Max_cycle;Signal;HPM_P1;HPM_P2
2023/04/16 00:00:12;;;;;;;157.82;40.58;;;;;;;;;;5005890;28;20032;-76
2023/04/16 00:02:38;;;;;;;157.35;43.95;;;;;;;;;;5042235;28;22036;-76
2023/04/16 00:05:05;;;;;;;166.32;43.10;;;;;;;;;;5026056;28;20060;-76
2023/04/16 00:07:31;;;;;;;166.75;45.55;;;;;;;;;;5025939;28;20065;-77
2023/04/16 00:09:57;;;;;;;166.65;43.65;;;;;;;;;;5027611;28;20086;-76
2023/04/16 00:12:23;;;;;;;141.20;44.95;;;;;;;;;;5025674;28;20140;-76
2023/04/16 00:14:49;;;;;;;168.35;45.40;;;;;;;;;;5036338;28;20041;-76
2023/04/16 00:17:15;;;;;;;145.98;44.25;;;;;;;;;;5004585;28;20052;-76
2023/04/16 00:19:41;;;;;;;128.88;42.63;;;;;;;;;;5024372;28;20386;-76
2023/04/16 00:22:07;;;;;;;146.73;44.22;;;;;;;;;;5030539;28;20045;-76
2023/04/16 00:24:33;;;;;;;149.30;45.95;;;;;;;;;;5035322;28;20048;-76
2023/04/16 00:27:00;;;;;;;171.38;47.88;;;;;;;;;;5019375;28;20408;-76
2023/04/16 00:29:27;;;;;;;140.85;46.03;;;;;;;;;;5022008;28;20179;-76
2023/04/16 00:31:53;;;;;;;181.80;48.05;;;;;;;;;;5034993;28;20057;-76
2023/04/16 00:34:19;;;;;;;173.52;49.25;;;;;;;;;;5041163;28;20036;-76
2023/04/16 00:36:45;;;;;;;148.73;46.20;;;;;;;;;;5024595;28;20041;-76
2023/04/16 00:39:11;;;;;;;212.02;51.72;;;;;;;;;;5037989;28;20048;-76
2023/04/16 00:41:38;;;;;;;201.13;52.17;;;;;;;;;;5035063;28;20045;-76
2023/04/16 00:44:04;;;;;;;173.25;47.78;;;;;;;;;;5035327;28;20051;-76
2023/04/16 00:46:30;;;;;;;193.35;51.33;;;;;;;;;;5021816;28;20687;-76
2023/04/16 00:48:57;;;;;;;179.63;47.90;;;;;;;;;;5019636;28;20056;-76
2023/04/16 00:51:23;;;;;;;242.52;53.88;;;;;;;;;;5006645;28;20055;-76
2023/04/16 00:53:49;;;;;;;221.80;52.00;;;;;;;;;;5041683;28;20163;-75
2023/04/16 00:56:15;;;;;;;168.85;48.63;;;;;;;;;;5023348;28;20040;-76
2023/04/16 00:58:42;;;;;;;224.77;53.50;;;;;;;;;;5020879;28;20235;-76
2023/04/16 01:01:08;;;;;;;223.00;55.95;;;;;;;;;;5021817;28;20094;-77
2023/04/16 01:03:38;;;;;;;165.35;52.72;;;;;;;;;;5017937;28;20500;-77
2023/04/16 01:06:05;;;;;;;156.60;51.22;;;;;;;;;;5022332;28;20053;-77
2023/04/16 01:08:31;;;;;;;156.70;48.75;;;;;;;;;;5020966;28;20048;-77
2023/04/16 01:10:57;;;;;;;179.77;52.35;;;;;;;;;;5021989;28;20045;-76
2023/04/16 01:13:23;;;;;;;263.90;54.15;;;;;;;;;;5007180;28;20057;-76
2023/04/16 01:15:49;;;;;;;227.02;53.47;;;;;;;;;;5009698;28;20040;-76
2023/04/16 01:18:16;;;;;;;194.77;49.15;;;;;;;;;;5014620;28;20049;-76
2023/04/16 01:20:42;;;;;;;218.23;52.42;;;;;;;;;;5021308;28;20058;-76
2023/04/16 01:23:08;;;;;;;162.48;49.83;;;;;;;;;;5036209;28;20159;-76
2023/04/16 01:25:34;;;;;;;183.73;49.75;;;;;;;;;;5022190;28;20056;-76
2023/04/16 01:28:00;;;;;;;193.95;47.15;;;;;;;;;;5035963;28;20048;-76
2023/04/16 01:30:27;;;;;;;210.60;47.00;;;;;;;;;;5019660;28;20067;-75
2023/04/16 01:32:53;;;;;;;181.00;45.92;;;;;;;;;;5016476;28;20097;-76
2023/04/16 01:35:19;;;;;;;161.20;47.75;;;;;;;;;;5018729;28;20133;-76
2023/04/16 01:37:45;;;;;;;209.82;49.50;;;;;;;;;;5039585;28;20122;-76
2023/04/16 01:40:11;;;;;;;164.95;46.17;;;;;;;;;;5023066;28;20042;-76
2023/04/16 01:42:37;;;;;;;141.63;45.28;;;;;;;;;;5043620;28;20136;-76
2023/04/16 01:45:04;;;;;;;143.05;45.58;;;;;;;;;;5019807;28;20040;-75
2023/04/16 01:47:30;;;;;;;150.18;45.72;;;;;;;;;;5018377;28;20048;-76
2023/04/16 01:49:56;;;;;;;141.55;43.03;;;;;;;;;;5022402;28;20036;-76
2023/04/16 01:52:22;;;;;;;137.20;45.28;;;;;;;;;;5020691;28;20055;-75
2023/04/16 01:54:48;;;;;;;132.50;44.92;;;;;;;;;;5022356;28;20136;-76
2023/04/16 01:57:15;;;;;;;120.03;42.95;;;;;;;;;;5019800;28;20047;-76
2023/04/16 01:59:41;;;;;;;136.05;45.88;;;;;;;;;;5015972;28;20042;-76
2023/04/16 02:02:09;;;;;;;119.72;43.25;;;;;;;;;;5018042;28;20045;-75
2023/04/16 02:04:37;;;;;;;127.63;44.38;;;;;;;;;;5021343;28;20550;-76
2023/04/16 02:07:04;;;;;;;119.40;45.33;;;;;;;;;;5016856;28;22032;-75
2023/04/16 02:09:30;;;;;;;116.55;44.65;;;;;;;;;;5020122;28;20044;-75
2023/04/16 02:11:56;;;;;;;129.05;46.67;;;;;;;;;;5020532;28;20182;-76
2023/04/16 02:14:24;;;;;;;125.00;45.05;;;;;;;;;;5020912;28;20051;-76
2023/04/16 02:16:50;;;;;;;126.80;44.70;;;;;;;;;;4999419;28;20044;-75
2023/04/16 02:19:17;;;;;;;127.40;46.45;;;;;;;;;;5018485;28;20120;-75
2023/04/16 02:21:43;;;;;;;121.18;45.33;;;;;;;;;;5018440;28;20090;-76
2023/04/16 02:24:09;;;;;;;134.85;46.97;;;;;;;;;;5020103;28;20048;-75
2023/04/16 02:26:35;;;;;;;130.57;47.05;;;;;;;;;;4996875;28;20048;-75
2023/04/16 02:29:01;;;;;;;126.45;46.28;;;;;;;;;;5038394;28;20069;-75
2023/04/16 02:31:28;;;;;;;125.18;46.08;;;;;;;;;;5016596;28;20048;-76
2023/04/16 02:33:54;;;;;;;141.88;45.72;;;;;;;;;;5003154;28;20075;-76
2023/04/16 02:36:20;;;;;;;130.68;45.60;;;;;;;;;;5015828;28;20273;-76
2023/04/16 02:38:46;;;;;;;132.50;47.75;;;;;;;;;;5017183;28;20048;-75
2023/04/16 02:41:12;;;;;;;122.20;43.90;;;;;;;;;;5018060;28;20515;-75
2023/04/16 02:43:39;;;;;;;125.93;43.95;;;;;;;;;;5015288;28;20999;-76
2023/04/16 02:46:05;;;;;;;127.20;44.30;;;;;;;;;;5016561;28;20056;-76
2023/04/16 02:48:31;;;;;;;127.78;42.72;;;;;;;;;;4997616;28;20079;-76
2023/04/16 02:50:57;;;;;;;115.97;42.95;;;;;;;;;;5017039;28;20108;-75
2023/04/16 02:53:23;;;;;;;132.25;44.97;;;;;;;;;;5034235;28;20143;-75
2023/04/16 02:55:51;;;;;;;118.05;43.60;;;;;;;;;;5022574;28;21988;-75
2023/04/16 02:58:17;;;;;;;119.47;44.08;;;;;;;;;;5021256;28;20040;-76
2023/04/16 03:00:44;;;;;;;122.97;44.60;;;;;;;;;;5040409;28;20076;-82
2023/04/16 03:03:10;;;;;;;111.63;43.35;;;;;;;;;;5044659;28;20060;-81
2023/04/16 03:05:36;;;;;;;108.72;40.67;;;;;;;;;;5048692;28;21804;-82
2023/04/16 03:08:03;;;;;;;89.22;41.30;;;;;;;;;;5047273;28;20373;-82
2023/04/16 03:10:29;;;;;;;111.45;42.40;;;;;;;;;;5048174;28;20036;-81
2023/04/16 03:12:56;;;;;;;100.70;39.05;;;;;;;;;;5029087;28;20454;-82
2023/04/16 03:15:22;;;;;;;108.70;41.67;;;;;;;;;;5029073;28;20036;-82
2023/04/16 03:17:48;;;;;;;96.95;39.50;;;;;;;;;;5030846;28;20040;-82
2023/04/16 03:20:15;;;;;;;102.35;40.75;;;;;;;;;;5046981;28;20907;-82
2023/04/16 03:22:42;;;;;;;102.68;40.28;;;;;;;;;;5049190;28;20041;-82
2023/04/16 03:25:08;;;;;;;97.18;40.83;;;;;;;;;;5030047;28;20107;-82
2023/04/16 03:27:34;;;;;;;94.25;39.78;;;;;;;;;;5028531;28;20231;-82
2023/04/16 03:30:01;;;;;;;87.28;37.88;;;;;;;;;;5048572;28;20040;-82
2023/04/16 03:32:27;;;;;;;94.07;37.50;;;;;;;;;;5048805;28;20968;-82
2023/04/16 03:34:53;;;;;;;88.13;38.35;;;;;;;;;;5029897;28;20044;-82
2023/04/16 03:37:19;;;;;;;90.70;39.13;;;;;;;;;;5013068;28;20055;-82
2023/04/16 03:39:45;;;;;;;102.53;38.28;;;;;;;;;;5009360;28;20036;-82
2023/04/16 03:42:11;;;;;;;95.82;37.17;;;;;;;;;;5049732;28;20048;-82
2023/04/16 03:44:37;;;;;;;88.57;37.00;;;;;;;;;;5051828;28;20033;-82
2023/04/16 03:47:03;;;;;;;103.50;39.20;;;;;;;;;;5032201;28;20099;-82
2023/04/16 03:49:30;;;;;;;83.30;37.33;;;;;;;;;;5029758;28;20459;-82
2023/04/16 03:51:56;;;;;;;87.53;37.28;;;;;;;;;;5049614;28;20056;-83
2023/04/16 03:54:22;;;;;;;82.07;36.97;;;;;;;;;;5031449;28;21316;-82
2023/04/16 03:56:48;;;;;;;84.05;36.65;;;;;;;;;;5032750;28;20168;-82
2023/04/16 03:59:14;;;;;;;78.72;36.08;;;;;;;;;;5029738;28;20075;-82
2023/04/16 04:01:40;;;;;;;85.38;37.58;;;;;;;;;;5045113;28;20048;-82
2023/04/16 04:04:08;;;;;;;81.82;35.25;;;;;;;;;;5026437;28;20441;-82
2023/04/16 04:06:34;;;;;;;74.57;36.30;;;;;;;;;;5021517;28;20148;-82
2023/04/16 04:09:00;;;;;;;79.70;37.83;;;;;;;;;;5023788;28;21704;-82
2023/04/16 04:11:26;;;;;;;81.75;37.95;;;;;;;;;;5024444;28;20288;-82
2023/04/16 04:13:52;;;;;;;73.97;36.50;;;;;;;;;;5024551;28;20102;-82
2023/04/16 04:16:18;;;;;;;74.25;36.88;;;;;;;;;;5024372;28;20040;-82
2023/04/16 04:18:44;;;;;;;65.65;35.72;;;;;;;;;;5016060;28;20102;-82
2023/04/16 04:21:11;;;;;;;85.68;36.70;;;;;;;;;;5017815;28;20095;-82
2023/04/16 04:23:37;;;;;;;76.90;38.45;;;;;;;;;;5012287;28;20684;-82
2023/04/16 04:26:04;;;;;;;75.03;36.47;;;;;;;;;;5014452;28;20212;-82
2023/04/16 04:28:30;;;;;;;71.65;35.47;;;;;;;;;;5015957;28;20052;-82
2023/04/16 04:30:57;;;;;;;75.10;35.60;;;;;;;;;;5020540;28;20094;-82
2023/04/16 04:33:23;;;;;;;77.75;37.13;;;;;;;;;;5041788;28;20047;-82
2023/04/16 04:35:49;;;;;;;68.05;35.85;;;;;;;;;;5017053;28;21643;-82
2023/04/16 04:38:20;;;;;;;61.50;35.03;;;;;;;;;;5021966;28;20059;-83
2023/04/16 04:40:47;;;;;;;69.70;36.50;;;;;;;;;;5021486;28;20642;-82
2023/04/16 04:43:13;;;;;;;69.45;34.58;;;;;;;;;;5021109;28;20036;-83
2023/04/16 04:45:39;;;;;;;68.95;35.78;;;;;;;;;;5021865;28;20048;-82
2023/04/16 04:48:05;;;;;;;73.35;35.92;;;;;;;;;;5043907;28;20524;-82
2023/04/16 04:50:32;;;;;;;67.60;33.28;;;;;;;;;;5043236;28;20037;-82
2023/04/16 04:52:58;;;;;;;74.43;34.00;;;;;;;;;;5038147;28;21222;-82
2023/04/16 04:55:24;;;;;;;68.20;35.03;;;;;;;;;;5040453;28;20554;-82
2023/04/16 04:57:50;;;;;;;62.47;32.15;;;;;;;;;;5025088;28;20098;-82
2023/04/16 05:00:16;;;;;;;70.97;32.47;;;;;;;;;;5020671;28;20045;-82
2023/04/16 05:02:42;;;;;;;63.72;32.65;;;;;;;;;;5020173;28;21519;-82
2023/04/16 05:05:08;;;;;;;64.75;32.58;;;;;;;;;;5018590;28;20444;-82
2023/04/16 05:07:35;;;;;;;67.20;33.55;;;;;;;;;;5019292;28;20048;-82
2023/04/16 05:10:01;;;;;;;61.03;30.95;;;;;;;;;;5042183;28;20040;-82
2023/04/16 05:12:27;;;;;;;67.65;32.33;;;;;;;;;;5028592;28;20048;-82
2023/04/16 05:14:53;;;;;;;79.30;34.92;;;;;;;;;;5046648;28;20106;-82
2023/04/16 05:17:19;;;;;;;62.35;33.28;;;;;;;;;;5023540;28;20155;-82
2023/04/16 05:19:45;;;;;;;64.07;32.00;;;;;;;;;;5025207;28;20068;-82
2023/04/16 05:22:11;;;;;;;68.97;33.33;;;;;;;;;;5025557;28;20866;-82
2023/04/16 05:24:37;;;;;;;68.40;33.42;;;;;;;;;;5043084;28;20204;-82
2023/04/16 05:27:03;;;;;;;69.32;34.90;;;;;;;;;;5021161;28;21694;-82
2023/04/16 05:29:29;;;;;;;66.10;32.72;;;;;;;;;;5004693;28;20041;-82
2023/04/16 05:31:56;;;;;;;65.75;34.25;;;;;;;;;;5041236;28;20048;-82
2023/04/16 05:34:22;;;;;;;71.75;33.92;;;;;;;;;;5019783;28;20629;-82
2023/04/16 05:36:48;;;;;;;62.60;33.67;;;;;;;;;;5043857;28;20403;-82
2023/04/16 05:39:16;;;;;;;76.85;36.58;;;;;;;;;;5044322;28;20044;-82
2023/04/16 05:41:42;;;;;;;66.72;33.90;;;;;;;;;;5026096;28;20049;-82
2023/04/16 05:44:08;;;;;;;57.88;32.67;;;;;;;;;;5026897;28;20045;-82
2023/04/16 05:46:34;;;;;;;70.82;34.30;;;;;;;;;;5024932;28;20083;-82
2023/04/16 05:49:00;;;;;;;78.72;34.17;;;;;;;;;;5025822;28;20044;-82
2023/04/16 05:51:26;;;;;;;68.30;34.08;;;;;;;;;;5030412;28;20549;-82
2023/04/16 05:53:52;;;;;;;79.82;36.75;;;;;;;;;;5027844;28;20067;-82
2023/04/16 05:56:19;;;;;;;69.55;34.15;;;;;;;;;;5026542;28;20041;-82
2023/04/16 05:58:45;;;;;;;70.07;34.83;;;;;;;;;;5027464;28;20748;-82
2023/04/16 06:01:11;;;;;;;65.47;34.63;;;;;;;;;;5041720;28;21049;-82
2023/04/16 06:03:37;;;;;;;68.28;36.50;;;;;;;;;;5045098;28;20040;-82
2023/04/16 06:06:04;;;;;;;60.22;33.92;;;;;;;;;;5025839;28;20064;-82
2023/04/16 06:08:30;;;;;;;58.30;34.42;;;;;;;;;;5026117;28;20052;-83
2023/04/16 06:10:56;;;;;;;75.57;35.72;;;;;;;;;;5027639;28;22791;-82
2023/04/16 06:13:22;;;;;;;74.35;36.30;;;;;;;;;;5028080;28;20079;-82
2023/04/16 06:15:48;;;;;;;73.60;35.92;;;;;;;;;;5022561;28;20571;-82
2023/04/16 06:18:14;;;;;;;77.93;36.80;;;;;;;;;;5020590;28;20044;-82
2023/04/16 06:20:40;;;;;;;77.43;36.40;;;;;;;;;;5003211;28;20036;-82
2023/04/16 06:23:06;;;;;;;82.05;36.60;;;;;;;;;;5021554;28;20134;-83
2023/04/16 06:25:32;;;;;;;79.00;36.00;;;;;;;;;;5023870;28;20127;-83
2023/04/16 06:27:58;;;;;;;78.82;34.95;;;;;;;;;;5008707;28;20048;-82
2023/04/16 06:30:24;;;;;;;76.65;33.60;;;;;;;;;;5028107;28;20135;-83
2023/04/16 06:32:50;;;;;;;76.72;34.42;;;;;;;;;;5048665;28;20037;-83
2023/04/16 06:35:18;;;;;;;71.10;35.13;;;;;;;;;;5026770;28;20044;-82
2023/04/16 06:37:45;;;;;;;76.05;35.40;;;;;;;;;;5042381;28;21177;-82
2023/04/16 06:40:11;;;;;;;70.75;33.70;;;;;;;;;;5038004;28;20105;-82
2023/04/16 06:42:37;;;;;;;86.45;35.38;;;;;;;;;;5024616;28;20527;-82
2023/04/16 06:45:03;;;;;;;71.38;33.80;;;;;;;;;;5021577;28;20135;-82
2023/04/16 06:47:29;;;;;;;72.55;35.40;;;;;;;;;;5020108;28;20106;-81
2023/04/16 06:49:55;;;;;;;65.40;33.65;;;;;;;;;;5041460;28;20582;-80
2023/04/16 06:52:21;;;;;;;75.43;34.47;;;;;;;;;;5038984;28;20057;-82
2023/04/16 06:54:48;;;;;;;72.45;33.30;;;;;;;;;;5040107;28;20053;-82
2023/04/16 06:57:15;;;;;;;68.07;31.88;;;;;;;;;;5003687;28;20036;-82
2023/04/16 06:59:41;;;;;;;70.85;32.53;;;;;;;;;;5024655;28;20392;-83
2023/04/16 07:02:09;;;;;;;72.15;33.40;;;;;;;;;;5041681;28;20036;-83
2023/04/16 07:04:35;;;;;;;67.85;30.95;;;;;;;;;;5023488;28;20044;-83
2023/04/16 07:07:01;;;;;;;66.43;32.95;;;;;;;;;;5022890;28;20275;-82
2023/04/16 07:09:27;;;;;;;67.05;31.67;;;;;;;;;;5024365;28;20437;-82
2023/04/16 07:11:54;;;;;;;60.00;31.10;;;;;;;;;;5021554;28;20135;-81
2023/04/16 07:14:20;;;;;;;64.80;31.35;;;;;;;;;;5033841;28;20086;-82
2023/04/16 07:16:46;;;;;;;66.43;29.92;;;;;;;;;;5016637;28;20055;-83
2023/04/16 07:19:12;;;;;;;56.75;30.67;;;;;;;;;;5020652;28;20051;-82
2023/04/16 07:21:40;;;;;;;65.20;31.70;;;;;;;;;;5018300;28;20068;-83
2023/04/16 07:24:06;;;;;;;69.72;32.53;;;;;;;;;;5017500;28;20475;-83
2023/04/16 07:26:32;;;;;;;71.30;30.08;;;;;;;;;;5018674;28;20048;-83
2023/04/16 07:28:59;;;;;;;61.97;29.27;;;;;;;;;;5016004;28;20101;-83
2023/04/16 07:31:25;;;;;;;75.80;30.45;;;;;;;;;;5020430;28;20052;-83
2023/04/16 07:33:51;;;;;;;62.65;30.23;;;;;;;;;;5020331;28;20086;-84
2023/04/16 07:36:17;;;;;;;59.80;28.50;;;;;;;;;;5019615;28;20041;-81
2023/04/16 07:38:43;;;;;;;60.83;28.50;;;;;;;;;;5016230;28;20071;-84
2023/04/16 07:41:09;;;;;;;60.88;29.45;;;;;;;;;;5018921;28;20701;-83
2023/04/16 07:43:35;;;;;;;54.30;27.30;;;;;;;;;;5021227;28;20044;-83
2023/04/16 07:46:01;;;;;;;57.90;27.20;;;;;;;;;;5021365;28;20048;-83
2023/04/16 07:48:27;;;;;;;56.95;26.98;;;;;;;;;;5020574;28;20055;-83
2023/04/16 07:50:54;;;;;;;52.15;25.90;;;;;;;;;;5038376;28;20128;-84
2023/04/16 07:53:20;;;;;;;65.25;27.02;;;;;;;;;;5021846;28;20128;-83
2023/04/16 07:55:46;;;;;;;56.80;25.35;;;;;;;;;;5020585;28;20041;-84
2023/04/16 07:58:12;;;;;;;57.47;24.85;;;;;;;;;;5022449;28;20054;-83
2023/04/16 08:00:39;;;;;;;51.05;24.08;;;;;;;;;;5021954;28;20496;-83
2023/04/16 08:03:05;;;;;;;49.45;23.90;;;;;;;;;;5021233;28;20040;-83
2023/04/16 08:05:31;;;;;;;55.17;24.13;;;;;;;;;;5022609;28;21534;-83
2023/04/16 08:07:57;;;;;;;48.25;22.83;;;;;;;;;;5037477;28;20091;-83
2023/04/16 08:10:23;;;;;;;43.88;22.38;;;;;;;;;;5019306;28;20053;-83
2023/04/16 08:12:49;;;;;;;51.85;22.40;;;;;;;;;;5021553;28;20040;-82
2023/04/16 08:15:15;;;;;;;40.83;20.70;;;;;;;;;;5021394;28;20518;-84
2023/04/16 08:17:41;;;;;;;45.60;22.85;;;;;;;;;;5017052;28;20575;-82
2023/04/16 08:20:08;;;;;;;38.00;20.25;;;;;;;;;;5037269;28;20112;-83
2023/04/16 08:22:34;;;;;;;41.85;20.48;;;;;;;;;;5033907;28;20163;-83
2023/04/16 08:25:00;;;;;;;46.90;21.15;;;;;;;;;;5021261;28;20366;-83
2023/04/16 08:27:26;;;;;;;41.63;20.98;;;;;;;;;;5021920;28;20083;-83
2023/04/16 08:29:52;;;;;;;41.92;21.77;;;;;;;;;;5020977;28;20048;-84
2023/04/16 08:32:18;;;;;;;39.88;19.25;;;;;;;;;;5020983;28;20986;-83
2023/04/16 08:34:45;;;;;;;36.70;20.13;;;;;;;;;;5033113;28;20048;-82
2023/04/16 08:37:11;;;;;;;37.05;19.70;;;;;;;;;;5024655;28;20036;-83
2023/04/16 08:39:37;;;;;;;43.88;21.38;;;;;;;;;;5014681;28;20040;-83
2023/04/16 08:42:05;;;;;;;34.03;19.65;;;;;;;;;;5039819;28;21725;-84
2023/04/16 08:44:37;;;;;;;33.50;17.55;;;;;;;;;;5019590;28;20052;-83
2023/04/16 08:47:03;;;;;;;37.33;19.92;;;;;;;;;;5020651;28;22069;-83
2023/04/16 08:49:29;;;;;;;33.58;16.88;;;;;;;;;;5021212;28;20048;-83
2023/04/16 08:51:56;;;;;;;35.42;18.85;;;;;;;;;;5019790;28;20064;-83
2023/04/16 08:54:31;;;;;;;32.90;17.55;;;;;;;;;;5035992;28;20138;-83
2023/04/16 08:56:58;;;;;;;32.17;17.33;;;;;;;;;;5018596;28;20697;-82
2023/04/16 08:59:25;;;;;;;31.98;18.17;;;;;;;;;;5019210;28;20048;-82
2023/04/16 09:01:52;;;;;;;27.70;15.25;;;;;;;;;;5030012;28;20108;-84
2023/04/16 09:04:18;;;;;;;30.00;18.00;;;;;;;;;;5015786;28;20044;-83
2023/04/16 09:06:45;;;;;;;25.95;16.95;;;;;;;;;;5034496;28;20059;-85
2023/04/16 09:09:12;;;;;;;26.75;15.75;;;;;;;;;;5017723;28;22408;-84
2023/04/16 09:11:38;;;;;;;30.00;15.32;;;;;;;;;;5016257;28;20109;-84
2023/04/16 09:14:09;;;;;;;26.65;16.20;;;;;;;;;;5019884;28;20159;-83
2023/04/16 09:16:36;;;;;;;31.73;16.83;;;;;;;;;;5037137;28;20253;-84
2023/04/16 09:19:02;;;;;;;26.67;16.83;;;;;;;;;;5003035;28;20045;-83
2023/04/16 09:21:28;;;;;;;22.15;15.63;;;;;;;;;;5003589;28;20059;-84
2023/04/16 09:23:55;;;;;;;27.88;14.93;;;;;;;;;;5018913;28;20051;-84
2023/04/16 09:26:21;;;;;;;21.40;15.13;;;;;;;;;;5039851;28;20044;-84
2023/04/16 09:28:50;;;;;;;19.88;14.63;;;;;;;;;;5033532;28;20055;-84
2023/04/16 09:31:17;;;;;;;22.67;14.98;;;;;;;;;;5020053;28;20076;-83
2023/04/16 09:33:44;;;;;;;20.40;14.35;;;;;;;;;;5020001;28;20540;-84
2023/04/16 09:36:10;;;;;;;24.13;14.43;;;;;;;;;;5038004;28;21058;-83
2023/04/16 09:38:48;;;;;;;19.58;13.95;;;;;;;;;;5021689;28;20036;-82
2023/04/16 09:41:17;;;;;;;21.88;14.55;;;;;;;;;;5038744;28;20445;-82
2023/04/16 09:44:00;;;;;;;23.55;14.68;;;;;;;;;;5016009;28;20044;-83
2023/04/16 09:46:29;;;;;;;24.17;14.32;;;;;;;;;;5023399;28;20488;-82
2023/04/16 09:48:55;;;;;;;22.05;14.63;;;;;;;;;;5023973;28;20059;-83
2023/04/16 09:51:21;;;;;;;26.67;15.52;;;;;;;;;;5024077;28;20446;-83
2023/04/16 09:53:51;;;;;;;26.75;15.70;;;;;;;;;;5038310;28;20056;-83
2023/04/16 09:56:17;;;;;;;24.67;14.15;;;;;;;;;;5041591;28;20036;-83
2023/04/16 09:58:44;;;;;;;30.55;14.95;;;;;;;;;;5038126;28;20055;-82
2023/04/16 10:01:11;;;;;;;30.52;15.75;;;;;;;;;;5015667;28;20432;-84
2023/04/16 10:03:40;;;;;;;23.75;14.95;;;;;;;;;;5005617;28;20569;-82
2023/04/16 10:06:08;;;;;;;26.20;15.35;;;;;;;;;;5037229;28;20045;-85
2023/04/16 10:08:35;;;;;;;27.15;15.02;;;;;;;;;;5025229;28;20106;-85
2023/04/16 10:11:01;;;;;;;24.90;15.05;;;;;;;;;;5004575;28;20036;-84
2023/04/16 10:13:29;;;;;;;23.60;14.40;;;;;;;;;;5035328;28;20051;-85
2023/04/16 10:15:56;;;;;;;25.10;14.02;;;;;;;;;;5043097;28;20613;-84
2023/04/16 10:18:23;;;;;;;20.00;13.63;;;;;;;;;;5012069;28;20048;-84
2023/04/16 10:20:49;;;;;;;22.15;13.32;;;;;;;;;;4990165;28;20385;-84
2023/04/16 10:23:16;;;;;;;24.95;13.77;;;;;;;;;;5018537;28;20063;-77
2023/04/16 10:25:43;;;;;;;22.98;14.13;;;;;;;;;;5031431;28;20044;-78
2023/04/16 10:28:10;;;;;;;24.27;14.60;;;;;;;;;;5027407;28;20048;-83
2023/04/16 10:30:37;;;;;;;22.88;13.93;;;;;;;;;;5013991;28;20684;-83
2023/04/16 10:33:03;;;;;;;27.33;14.00;;;;;;;;;;5010298;28;20052;-85
2023/04/16 10:35:30;;;;;;;21.80;13.57;;;;;;;;;;5035340;28;20385;-84
2023/04/16 10:37:57;;;;;;;27.02;15.25;;;;;;;;;;5012183;28;20690;-82
2023/04/16 10:40:24;;;;;;;23.67;13.90;;;;;;;;;;5013067;28;20136;-82
2023/04/16 10:42:57;;;;;;;22.65;13.02;;;;;;;;;;5014973;28;20135;-82
2023/04/16 10:45:31;;;;;;;26.27;13.95;;;;;;;;;;5015397;28;20392;-84
2023/04/16 10:47:57;;;;;;;;;;;;;;;;;;5036646;28;20110;-84
2023/04/16 10:50:24;;;;;;;28.45;14.55;;;;;;;;;;5037266;28;19928;-82
2023/04/16 10:53:10;;;;;;;29.00;14.77;;;;;;;;;;5030705;28;20694;-84
2023/04/16 10:55:38;;;;;;;33.03;17.30;;;;;;;;;;5015841;28;20082;-83
2023/04/16 10:58:24;;;;;;;30.35;16.92;;;;;;;;;;5015178;28;20293;-83
2023/04/16 11:00:52;;;;;;;26.98;16.38;;;;;;;;;;5015583;28;20102;-84
2023/04/16 11:03:18;;;;;;;27.10;16.75;;;;;;;;;;5033496;28;20591;-87
2023/04/16 11:05:45;;;;;;;31.20;17.40;;;;;;;;;;5013474;28;20044;-83
2023/04/16 11:08:15;;;;;;;34.22;17.08;;;;;;;;;;5010807;28;20757;-84
2023/04/16 11:10:41;;;;;;;29.00;16.65;;;;;;;;;;5015626;28;20156;-84
2023/04/16 11:13:08;;;;;;;33.40;16.48;;;;;;;;;;5012831;28;20058;-84
2023/04/16 11:15:34;;;;;;;27.20;16.90;;;;;;;;;;4998304;28;20045;-85
2023/04/16 11:18:02;;;;;;;27.17;17.05;;;;;;;;;;5037371;28;20044;-82
2023/04/16 11:20:28;;;;;;;29.20;16.75;;;;;;;;;;5016755;28;21597;-84
2023/04/16 11:22:56;;;;;;;30.80;16.85;;;;;;;;;;5019805;28;20055;-85
2023/04/16 11:25:25;;;;;;;27.90;16.73;;;;;;;;;;5038029;28;20055;-86
2023/04/16 11:27:52;;;;;;;27.05;17.85;;;;;;;;;;5061247;28;20041;-86
2023/04/16 11:30:19;;;;;;;27.25;17.00;;;;;;;;;;5056066;28;20053;-84
2023/04/16 11:32:45;;;;;;;30.83;17.25;;;;;;;;;;5028140;28;22282;-72
2023/04/16 11:35:15;;;;;;;30.05;17.52;;;;;;;;;;5038771;28;20492;-72
2023/04/16 11:37:42;;;;;;;25.60;17.58;;;;;;;;;;5045622;28;20051;-72
2023/04/16 11:40:09;;;;;;;31.45;17.83;;;;;;;;;;5046045;28;20075;-72
2023/04/16 11:42:36;;;;;;;32.15;17.73;;;;;;;;;;5024530;28;20412;-73
2023/04/16 11:45:02;;;;;;;24.38;16.88;;;;;;;;;;5042085;28;20045;-72
2023/04/16 11:47:30;;;;;;;27.75;18.17;;;;;;;;;;5001504;28;20511;-73
2023/04/16 11:49:56;;;;;;;35.70;19.05;;;;;;;;;;5025909;28;20095;-73
2023/04/16 11:52:30;;;;;;;41.90;17.80;;;;;;;;;;5041645;28;20129;-72
2023/04/16 11:54:56;;;;;;;24.63;17.05;;;;;;;;;;5042252;28;20666;-72
2023/04/16 11:57:25;;;;;;;30.77;18.35;;;;;;;;;;5025209;28;20515;-73
2023/04/16 11:59:52;;;;;;;28.23;17.67;;;;;;;;;;5040118;28;20094;-72
2023/04/16 12:02:33;;;;;;;25.02;17.20;;;;;;;;;;5021181;28;20556;-73
2023/04/16 12:04:59;;;;;;;31.00;17.30;;;;;;;;;;5020622;28;20670;-73
2023/04/16 12:07:26;;;;;;;27.25;17.73;;;;;;;;;;5027678;28;20045;-74
2023/04/16 12:10:04;;;;;;;26.30;17.88;;;;;;;;;;5023294;28;20177;-73
2023/04/16 12:12:31;;;;;;;26.73;16.85;;;;;;;;;;5024280;28;20159;-74
2023/04/16 12:15:02;;;;;;;27.63;18.08;;;;;;;;;;5023339;28;20068;-74
2023/04/16 12:17:28;;;;;;;32.20;18.65;;;;;;;;;;5033019;28;20143;-74
2023/04/16 12:19:58;;;;;;;26.90;18.77;;;;;;;;;;5041095;28;20044;-74
2023/04/16 12:22:35;;;;;;;29.67;18.63;;;;;;;;;;5043263;28;20055;-75
2023/04/16 12:25:02;;;;;;;32.17;19.20;;;;;;;;;;5021755;28;20500;-73
2023/04/16 12:27:49;;;;;;;30.85;19.33;;;;;;;;;;5019536;28;20048;-73
2023/04/16 12:30:16;;;;;;;31.23;19.23;;;;;;;;;;5041417;28;20053;-72
2023/04/16 12:32:42;;;;;;;32.58;18.52;;;;;;;;;;5041375;28;20071;-72
2023/04/16 12:35:09;;;;;;;27.05;17.95;;;;;;;;;;5021757;28;20048;-72
2023/04/16 12:37:36;;;;;;;28.35;17.13;;;;;;;;;;5040611;28;20594;-71
2023/04/16 12:40:03;;;;;;;27.60;18.05;;;;;;;;;;5042445;28;20029;-72
2023/04/16 12:42:34;;;;;;;32.45;18.38;;;;;;;;;;5022784;28;20044;-72
2023/04/16 12:45:01;;;;;;;34.38;19.15;;;;;;;;;;5040494;28;20048;-72
2023/04/16 12:47:28;;;;;;;28.33;18.23;;;;;;;;;;5024167;28;20056;-72
2023/04/16 12:49:56;;;;;;;33.63;18.27;;;;;;;;;;5042139;28;20036;-72
2023/04/16 12:52:22;;;;;;;30.75;18.20;;;;;;;;;;5018320;28;20125;-71
2023/04/16 12:54:48;;;;;;;29.58;17.20;;;;;;;;;;5022673;28;20530;-72
2023/04/16 12:57:15;;;;;;;29.35;17.35;;;;;;;;;;5040171;28;20056;-71
2023/04/16 12:59:41;;;;;;;33.42;17.58;;;;;;;;;;5024757;28;20964;-71
2023/04/16 13:02:07;;;;;;;30.83;18.02;;;;;;;;;;5026341;28;20044;-71
2023/04/16 13:04:34;;;;;;;34.92;18.55;;;;;;;;;;5041645;28;20047;-71
2023/04/16 13:07:00;;;;;;;30.55;17.52;;;;;;;;;;5039838;28;20060;-71
2023/04/16 13:09:27;;;;;;;32.47;16.75;;;;;;;;;;5009662;28;20082;-71
2023/04/16 13:11:53;;;;;;;32.38;17.10;;;;;;;;;;5021232;28;20048;-72
2023/04/16 13:14:20;;;;;;;26.35;17.42;;;;;;;;;;5009085;28;20049;-71
2023/04/16 13:16:46;;;;;;;33.45;17.65;;;;;;;;;;5024081;28;20051;-72
2023/04/16 13:19:14;;;;;;;34.63;17.02;;;;;;;;;;5039084;28;20041;-71
2023/04/16 13:21:40;;;;;;;30.67;17.30;;;;;;;;;;5020198;28;20110;-71
2023/04/16 13:24:07;;;;;;;28.42;16.58;;;;;;;;;;5018227;28;20048;-71
2023/04/16 13:26:33;;;;;;;34.75;15.70;;;;;;;;;;5021257;28;20720;-71
2023/04/16 13:28:59;;;;;;;30.50;14.55;;;;;;;;;;5040066;28;20044;-71
2023/04/16 13:31:25;;;;;;;36.58;18.58;;;;;;;;;;5040023;28;20131;-71
2023/04/16 13:33:51;;;;;;;29.08;16.85;;;;;;;;;;5023024;28;20131;-71
2023/04/16 13:36:17;;;;;;;28.83;15.63;;;;;;;;;;5043052;28;20037;-71
2023/04/16 13:38:43;;;;;;;25.25;14.55;;;;;;;;;;5038104;28;20041;-71
2023/04/16 13:41:09;;;;;;;33.72;16.50;;;;;;;;;;5024398;28;20123;-71
2023/04/16 13:43:36;;;;;;;38.03;16.30;;;;;;;;;;5036779;28;20056;-71
2023/04/16 13:46:02;;;;;;;31.88;14.82;;;;;;;;;;5039710;28;20032;-71
2023/04/16 13:48:28;;;;;;;23.88;14.98;;;;;;;;;;5024640;28;20044;-71
2023/04/16 13:50:55;;;;;;;31.58;15.63;;;;;;;;;;5043739;28;20752;-71
2023/04/16 13:53:21;;;;;;;28.00;14.43;;;;;;;;;;5044440;28;20056;-71
2023/04/16 13:55:48;;;;;;;27.85;14.15;;;;;;;;;;5042108;28;20074;-71
2023/04/16 13:58:15;;;;;;;28.98;14.52;;;;;;;;;;5044174;28;20113;-71
2023/04/16 14:00:41;;;;;;;30.02;15.60;;;;;;;;;;5041199;28;20653;-71
2023/04/16 14:03:07;;;;;;;23.95;13.65;;;;;;;;;;5023528;28;20048;-71
2023/04/16 14:05:33;;;;;;;26.63;14.68;;;;;;;;;;5035710;28;20044;-71
2023/04/16 14:07:59;;;;;;;23.75;13.85;;;;;;;;;;5043884;28;20044;-71
2023/04/16 14:10:25;;;;;;;30.33;14.20;;;;;;;;;;5021730;28;20425;-71